Time;durP1;ratioP1;P1;durP2;ratioP2;P2;SDS_P1;SDS_P2;PMS_P1;PMS_P2;Temp;Humidity;BMP_temperature;BMP_pressure;BME280_temperature;BME280_humidity;BME280_pressure;Samples;Min_cycle;Max_cycle;Signal;HPM_P1;HPM_P2
2021/10/23 00:01:02;;;;;;;10.50;2.37;;;9.60;99.90;;;;;;5005963;28;38539;-74
2021/10/23 00:03:28;;;;;;;8.80;2.00;;;9.70;99.90;;;;;;5002354;28;39119;-73
2021/10/23 00:05:54;;;;;;;7.70;1.50;;;10.00;99.90;;;;;;5005120;28;39829;-73
2021/10/23 00:08:20;;;;;;;8.97;1.47;;;10.10;99.90;;;;;;5024749;28;39267;-73
2021/10/23 00:10:46;;;;;;;12.57;1.93;;;10.20;99.90;;;;;;5000274;28;40184;-73
2021/10/23 00:13:13;;;;;;;7.83;1.30;;;10.20;99.90;;;;;;5003720;28;36747;-73
2021/10/23 00:15:39;;;;;;;10.70;1.47;;;10.20;99.90;;;;;;5006581;28;39630;-73
2021/10/23 00:18:05;;;;;;;9.90;1.63;;;10.20;99.90;;;;;;5019356;28;38514;-74
2021/10/23 00:20:31;;;;;;;10.50;1.87;;;10.10;99.90;;;;;;5023349;28;37288;-74
2021/10/23 00:22:57;;;;;;;10.73;1.60;;;10.00;99.90;;;;;;4996073;28;37783;-73
2021/10/23 00:25:23;;;;;;;8.27;1.37;;;9.90;99.90;;;;;;5026283;28;41079;-74
2021/10/23 00:27:49;;;;;;;8.47;1.97;;;10.00;99.90;;;;;;5024022;28;39524;-73
2021/10/23 00:30:16;;;;;;;7.70;1.37;;;9.90;99.90;;;;;;4999803;28;40422;-73
2021/10/23 00:32:43;;;;;;;8.40;1.50;;;9.80;99.90;;;;;;5004339;28;36960;-74
2021/10/23 00:35:09;;;;;;;12.90;1.67;;;9.70;99.90;;;;;;4984835;28;39744;-73
2021/10/23 00:37:35;;;;;;;10.27;1.30;;;9.60;99.90;;;;;;5003192;28;40086;-73
2021/10/23 00:40:02;;;;;;;6.10;1.10;;;9.50;99.90;;;;;;5020170;28;38561;-74
2021/10/23 00:42:28;;;;;;;7.20;2.40;;;9.40;99.90;;;;;;5023821;28;38522;-73
2021/10/23 00:44:54;;;;;;;8.30;1.27;;;9.30;99.90;;;;;;5011722;28;39241;-73
2021/10/23 00:47:21;;;;;;;6.60;1.60;;;9.10;99.90;;;;;;4995930;28;39305;-74
2021/10/23 00:49:52;;;;;;;12.93;1.77;;;8.90;99.90;;;;;;5014179;28;39724;-74
2021/10/23 00:52:23;;;;;;;8.60;1.50;;;8.70;99.90;;;;;;5027337;28;35221;-73
2021/10/23 00:54:50;;;;;;;11.63;1.70;;;8.60;99.90;;;;;;5025267;28;39576;-73
2021/10/23 00:57:17;;;;;;;5.03;1.20;;;8.40;99.90;;;;;;5028026;28;38953;-73
2021/10/23 00:59:44;;;;;;;7.10;1.20;;;8.30;99.90;;;;;;5020904;28;38979;-73
2021/10/23 01:02:10;;;;;;;8.47;1.93;;;8.20;99.90;;;;;;5005010;28;36283;-73
2021/10/23 01:04:36;;;;;;;12.93;1.37;;;8.00;99.90;;;;;;5010902;28;38591;-74
2021/10/23 01:07:03;;;;;;;9.83;1.37;;;7.90;99.90;;;;;;5002570;28;40020;-73
2021/10/23 01:09:32;;;;;;;3.83;1.10;;;7.90;99.90;;;;;;5013404;28;39765;-73
2021/10/23 01:11:58;;;;;;;9.43;1.10;;;7.80;99.90;;;;;;5027988;28;37779;-73
2021/10/23 01:14:25;;;;;;;9.57;1.77;;;7.70;99.90;;;;;;5018828;28;39349;-73
2021/10/23 01:16:54;;;;;;;10.80;1.73;;;7.70;99.90;;;;;;5023163;28;38695;-73
2021/10/23 01:19:21;;;;;;;8.60;1.17;;;7.60;99.90;;;;;;5028835;28;38558;-73
2021/10/23 01:21:49;;;;;;;5.37;1.53;;;7.60;99.90;;;;;;5001293;28;39285;-74
2021/10/23 01:24:16;;;;;;;10.93;1.70;;;7.60;99.90;;;;;;5030442;28;37918;-73
2021/10/23 01:26:42;;;;;;;9.33;2.07;;;7.50;99.90;;;;;;5016880;28;40102;-74
2021/10/23 01:29:12;;;;;;;4.67;1.20;;;7.60;99.90;;;;;;5032479;28;39007;-73
2021/10/23 01:31:39;;;;;;;10.30;1.47;;;7.50;99.90;;;;;;5009108;28;36289;-73
2021/10/23 01:34:17;;;;;;;12.17;1.87;;;7.50;99.90;;;;;;5031443;28;38989;-73
2021/10/23 01:36:49;;;;;;;5.77;1.47;;;7.40;99.90;;;;;;5004118;28;40504;-73
2021/10/23 01:39:16;;;;;;;7.17;2.20;;;7.40;99.90;;;;;;5010933;28;38847;-73
2021/10/23 01:41:42;;;;;;;6.40;2.70;;;7.40;99.90;;;;;;5033722;28;37695;-73
2021/10/23 01:44:10;;;;;;;7.50;1.90;;;7.40;99.90;;;;;;5032141;28;37741;-73
2021/10/23 01:46:37;;;;;;;8.07;2.20;;;7.40;99.90;;;;;;5031217;28;39019;-73
2021/10/23 01:49:05;;;;;;;7.27;2.10;;;7.30;99.90;;;;;;5032281;28;39252;-74
2021/10/23 01:51:32;;;;;;;9.47;2.23;;;7.20;99.90;;;;;;5011469;28;36323;-73
2021/10/23 01:54:05;;;;;;;8.83;2.60;;;7.30;99.90;;;;;;5030620;28;39722;-73
2021/10/23 01:56:32;;;;;;;11.27;2.92;;;7.30;99.90;;;;;;5022561;28;48529;-73
2021/10/23 01:58:59;;;;;;;5.67;2.33;;;7.30;99.90;;;;;;5015129;28;36302;-73
2021/10/23 02:01:25;;;;;;;5.57;2.50;;;7.30;99.90;;;;;;5027752;28;37636;-73
2021/10/23 02:03:51;;;;;;;11.37;2.70;;;7.30;99.90;;;;;;5031157;28;39777;-73
2021/10/23 02:06:18;;;;;;;7.13;2.73;;;7.40;99.90;;;;;;5012279;28;37460;-73
2021/10/23 02:08:44;;;;;;;13.23;2.93;;;7.40;99.90;;;;;;5014190;28;38483;-73
2021/10/23 02:11:10;;;;;;;9.63;2.70;;;7.40;99.90;;;;;;5021229;28;38976;-73
2021/10/23 02:13:36;;;;;;;6.43;2.27;;;7.30;99.90;;;;;;5011194;28;39326;-72
2021/10/23 02:16:03;;;;;;;10.83;2.90;;;7.30;99.90;;;;;;5028375;28;38975;-73
2021/10/23 02:18:29;;;;;;;9.63;2.60;;;7.30;99.90;;;;;;5014169;28;38415;-72
2021/10/23 02:20:56;;;;;;;9.90;2.27;;;7.20;99.90;;;;;;5019512;28;38105;-73
2021/10/23 02:23:23;;;;;;;6.60;2.80;;;7.20;99.90;;;;;;5036311;28;38793;-73
2021/10/23 02:25:49;;;;;;;9.53;2.70;;;7.20;99.90;;;;;;5021335;28;38796;-73
2021/10/23 02:28:16;;;;;;;9.37;3.10;;;7.10;99.90;;;;;;5017201;28;37440;-73
2021/10/23 02:30:42;;;;;;;6.30;2.03;;;7.10;99.90;;;;;;5014610;28;38919;-73
2021/10/23 02:33:08;;;;;;;6.77;2.70;;;7.10;99.90;;;;;;5027870;28;38944;-73
2021/10/23 02:35:34;;;;;;;8.33;2.73;;;7.00;99.90;;;;;;5027853;28;39349;-73
2021/10/23 02:38:00;;;;;;;11.10;2.60;;;7.00;99.90;;;;;;5013710;28;39141;-73
2021/10/23 02:40:27;;;;;;;15.17;3.77;;;7.00;99.90;;;;;;5022218;28;47549;-72
2021/10/23 02:42:53;;;;;;;10.13;2.60;;;6.90;99.90;;;;;;5030719;28;38264;-73
2021/10/23 02:45:19;;;;;;;6.53;2.57;;;6.90;99.90;;;;;;5012828;28;39329;-72
2021/10/23 02:47:45;;;;;;;7.67;2.40;;;6.90;99.90;;;;;;5028184;28;38792;-72
2021/10/23 02:50:11;;;;;;;4.23;2.00;;;6.90;99.90;;;;;;5010041;28;37744;-72
2021/10/23 02:52:37;;;;;;;6.40;2.20;;;6.80;99.90;;;;;;5015359;28;39223;-73
2021/10/23 02:55:05;;;;;;;9.03;2.73;;;6.80;99.90;;;;;;5029391;28;39580;-73
2021/10/23 02:57:31;;;;;;;11.03;2.70;;;6.70;99.90;;;;;;5009832;28;47720;-73
2021/10/23 02:59:57;;;;;;;12.50;2.80;;;6.70;99.90;;;;;;5027068;28;36419;-73
2021/10/23 03:02:23;;;;;;;6.37;2.40;;;6.70;99.90;;;;;;5011805;28;39937;-73
2021/10/23 03:04:50;;;;;;;9.00;2.47;;;6.60;99.90;;;;;;5018899;28;39073;-72
2021/10/23 03:07:16;;;;;;;6.50;2.10;;;6.60;99.90;;;;;;5010766;28;39850;-73
2021/10/23 03:09:42;;;;;;;7.13;1.93;;;6.60;99.90;;;;;;5013406;28;38219;-72
2021/10/23 03:12:08;;;;;;;8.33;2.03;;;6.60;99.90;;;;;;5021447;28;39529;-73
2021/10/23 03:14:34;;;;;;;7.43;2.07;;;6.60;99.90;;;;;;5029793;28;39562;-73
2021/10/23 03:17:00;;;;;;;3.90;1.97;;;6.50;99.90;;;;;;5028911;28;38529;-72
2021/10/23 03:19:26;;;;;;;5.60;2.47;;;6.40;99.90;;;;;;4999135;28;38522;-73
2021/10/23 03:21:52;;;;;;;6.47;2.17;;;6.40;99.90;;;;;;5006750;28;39620;-73
2021/10/23 03:24:18;;;;;;;4.60;1.93;;;6.30;99.90;;;;;;5022938;28;38910;-73
2021/10/23 03:26:44;;;;;;;4.97;2.40;;;6.40;99.90;;;;;;5027586;28;38135;-73
2021/10/23 03:29:10;;;;;;;15.00;4.07;;;6.40;99.90;;;;;;5006714;28;38261;-73
2021/10/23 03:31:36;;;;;;;5.50;2.47;;;6.40;99.90;;;;;;5013260;28;40036;-74
2021/10/23 03:34:02;;;;;;;14.07;2.40;;;6.30;99.90;;;;;;5027850;28;38335;-73
2021/10/23 03:36:28;;;;;;;7.53;2.57;;;6.20;99.90;;;;;;5022393;28;39005;-73
2021/10/23 03:38:54;;;;;;;6.87;2.07;;;6.20;99.90;;;;;;4992121;28;37525;-73
2021/10/23 03:41:21;;;;;;;10.03;2.50;;;6.20;99.90;;;;;;5028910;28;38752;-73
2021/10/23 03:43:47;;;;;;;6.03;1.90;;;6.10;99.90;;;;;;5028113;28;37347;-73
2021/10/23 03:46:13;;;;;;;9.87;2.33;;;6.00;99.90;;;;;;5004814;28;38530;-73
2021/10/23 03:48:39;;;;;;;7.20;2.10;;;6.00;99.90;;;;;;5010913;28;37771;-73
2021/10/23 03:51:05;;;;;;;8.80;1.90;;;6.00;99.90;;;;;;5015309;28;38820;-73
2021/10/23 03:53:31;;;;;;;10.87;2.27;;;6.00;99.90;;;;;;5036930;28;39011;-73
2021/10/23 03:55:57;;;;;;;12.60;2.20;;;6.00;99.90;;;;;;5001088;28;41453;-73
2021/10/23 03:58:23;;;;;;;15.20;2.63;;;5.90;99.90;;;;;;5037368;28;37244;-73
2021/10/23 04:00:49;;;;;;;9.50;2.00;;;5.90;99.90;;;;;;5029607;28;39835;-73
2021/10/23 04:03:16;;;;;;;4.50;1.93;;;6.00;99.90;;;;;;5035396;28;39907;-73
2021/10/23 04:05:42;;;;;;;7.30;2.33;;;6.00;99.90;;;;;;4999921;28;39112;-73
2021/10/23 04:08:08;;;;;;;6.40;1.63;;;5.90;99.90;;;;;;4997154;28;36238;-73
2021/10/23 04:10:34;;;;;;;7.80;2.30;;;5.90;99.90;;;;;;5001784;28;40635;-73
2021/10/23 04:13:00;;;;;;;4.90;2.40;;;5.90;99.90;;;;;;5012266;28;39516;-73
2021/10/23 04:15:26;;;;;;;6.07;2.00;;;5.90;99.90;;;;;;4992196;28;39824;-73
2021/10/23 04:17:52;;;;;;;6.97;2.20;;;5.90;99.90;;;;;;4987453;28;37306;-73
2021/10/23 04:20:18;;;;;;;6.53;1.97;;;5.90;99.90;;;;;;4983532;28;39435;-73
2021/10/23 04:22:44;;;;;;;7.30;1.97;;;5.90;99.90;;;;;;4990391;28;38647;-73
2021/10/23 04:25:11;;;;;;;7.03;1.93;;;5.80;99.90;;;;;;4991703;28;38124;-73
2021/10/23 04:27:37;;;;;;;9.47;2.17;;;5.80;99.90;;;;;;4986932;28;37323;-73
2021/10/23 04:30:03;;;;;;;5.63;2.00;;;5.80;99.90;;;;;;4997421;28;40369;-73
2021/10/23 04:32:29;;;;;;;5.70;2.37;;;5.80;99.90;;;;;;4984746;28;38835;-73
2021/10/23 04:34:56;;;;;;;10.53;2.00;;;5.80;99.90;;;;;;4982580;28;39457;-73
2021/10/23 04:37:23;;;;;;;7.60;2.00;;;5.80;99.90;;;;;;4999403;28;38174;-73
2021/10/23 04:39:49;;;;;;;6.70;1.77;;;5.70;99.90;;;;;;4989598;28;39999;-73
2021/10/23 04:42:15;;;;;;;4.20;1.60;;;5.70;99.90;;;;;;4981267;28;38678;-73
2021/10/23 04:44:41;;;;;;;8.67;1.60;;;5.60;99.90;;;;;;4989832;28;38346;-73
2021/10/23 04:47:07;;;;;;;6.03;1.63;;;5.70;99.90;;;;;;4981021;28;36750;-73
2021/10/23 04:49:33;;;;;;;6.23;1.90;;;5.70;99.90;;;;;;4987676;28;38647;-72
2021/10/23 04:52:00;;;;;;;5.63;2.00;;;5.60;99.90;;;;;;4992498;28;38896;-73
2021/10/23 04:54:26;;;;;;;4.97;1.93;;;5.60;99.90;;;;;;4989224;28;39019;-73
2021/10/23 04:56:52;;;;;;;5.27;1.73;;;5.60;99.90;;;;;;4992962;28;38119;-72
2021/10/23 04:59:18;;;;;;;6.40;2.30;;;5.60;99.90;;;;;;4991901;28;39038;-73
2021/10/23 05:01:44;;;;;;;8.07;2.10;;;5.60;99.90;;;;;;4990621;28;39315;-73
2021/10/23 05:04:10;;;;;;;4.60;1.37;;;5.60;99.90;;;;;;4989765;28;38924;-73
2021/10/23 05:06:36;;;;;;;7.90;1.60;;;5.60;99.90;;;;;;5013149;28;38154;-73
2021/10/23 05:09:03;;;;;;;7.47;2.00;;;5.60;99.90;;;;;;5007725;28;39890;-73
2021/10/23 05:11:29;;;;;;;4.67;1.60;;;5.60;99.90;;;;;;5009375;28;39027;-73
2021/10/23 05:13:55;;;;;;;8.90;2.10;;;5.50;99.90;;;;;;5015765;28;38828;-73
2021/10/23 05:16:21;;;;;;;6.23;2.00;;;5.50;99.90;;;;;;5011768;28;37301;-73
2021/10/23 05:18:49;;;;;;;10.77;3.23;;;5.50;99.90;;;;;;5015407;28;39832;-73
2021/10/23 05:21:17;;;;;;;11.30;2.93;;;5.40;99.90;;;;;;5009044;28;38284;-73
2021/10/23 05:23:45;;;;;;;6.47;2.70;;;5.50;99.90;;;;;;5006950;28;39012;-72
2021/10/23 05:26:11;;;;;;;12.00;2.70;;;5.50;99.90;;;;;;5012330;28;38934;-73
2021/10/23 05:28:38;;;;;;;8.17;2.90;;;5.50;99.90;;;;;;4993427;28;40792;-73
2021/10/23 05:31:04;;;;;;;6.60;2.77;;;5.50;99.90;;;;;;5033034;28;40240;-73
2021/10/23 05:33:31;;;;;;;9.20;2.87;;;5.60;99.90;;;;;;5030164;28;38202;-72
2021/10/23 05:35:57;;;;;;;5.23;1.80;;;5.60;99.90;;;;;;5014270;28;36773;-73
2021/10/23 05:38:23;;;;;;;5.37;2.57;;;5.70;99.90;;;;;;5029574;28;38473;-73
2021/10/23 05:40:49;;;;;;;5.20;2.20;;;5.80;99.90;;;;;;5029085;28;37407;-73
2021/10/23 05:43:15;;;;;;;7.53;2.33;;;5.90;99.90;;;;;;5030694;28;38892;-73
2021/10/23 05:45:42;;;;;;;6.07;2.23;;;5.90;99.90;;;;;;5028586;28;37231;-73
2021/10/23 05:48:08;;;;;;;4.17;2.33;;;6.00;99.90;;;;;;5008293;28;40895;-73
2021/10/23 05:50:34;;;;;;;5.87;2.23;;;6.10;99.90;;;;;;5010381;28;40363;-73
2021/10/23 05:53:00;;;;;;;12.87;3.23;;;6.20;99.90;;;;;;5012491;28;38711;-73
2021/10/23 05:55:26;;;;;;;6.73;3.33;;;6.20;99.90;;;;;;5010776;28;37219;-72
2021/10/23 05:57:52;;;;;;;8.30;3.57;;;6.30;99.90;;;;;;5008262;28;39093;-72
2021/10/23 06:00:19;;;;;;;7.57;3.60;;;6.40;99.90;;;;;;5010371;28;38642;-73
2021/10/23 06:02:46;;;;;;;12.70;4.60;;;6.50;99.90;;;;;;5010890;28;41838;-72
2021/10/23 06:05:13;;;;;;;9.30;3.50;;;6.50;99.90;;;;;;5012350;28;36155;-73
2021/10/23 06:07:40;;;;;;;12.73;5.23;;;6.60;99.90;;;;;;5012839;28;38186;-73
2021/10/23 06:10:09;;;;;;;10.60;4.60;;;6.60;99.90;;;;;;5025742;28;39735;-73
2021/10/23 06:12:36;;;;;;;16.33;5.33;;;6.70;99.90;;;;;;5033108;28;37411;-73
2021/10/23 06:15:03;;;;;;;11.87;5.60;;;6.70;99.90;;;;;;5016618;28;36376;-73
2021/10/23 06:17:29;;;;;;;10.73;5.40;;;6.80;99.90;;;;;;5030803;28;43076;-71
2021/10/23 06:19:55;;;;;;;14.03;6.50;;;6.90;99.90;;;;;;5019909;28;37810;-71
2021/10/23 06:22:22;;;;;;;11.97;5.37;;;7.00;99.90;;;;;;5031054;28;38704;-72
2021/10/23 06:24:48;;;;;;;17.60;7.40;;;7.10;99.90;;;;;;5012349;28;37666;-73
2021/10/23 06:27:14;;;;;;;18.03;8.10;;;7.10;99.90;;;;;;5029945;28;39979;-73
2021/10/23 06:29:40;;;;;;;21.10;10.03;;;7.20;99.90;;;;;;5011251;28;37988;-72
2021/10/23 06:32:06;;;;;;;23.00;10.43;;;7.30;99.90;;;;;;4997664;28;39238;-73
2021/10/23 06:34:32;;;;;;;18.27;10.27;;;7.40;99.90;;;;;;5011837;28;39225;-72
2021/10/23 06:36:58;;;;;;;37.63;15.97;;;7.60;99.90;;;;;;5011583;28;39142;-72
2021/10/23 06:39:24;;;;;;;24.20;13.77;;;7.70;99.90;;;;;;5013229;28;38733;-72
2021/10/23 06:41:50;;;;;;;22.73;13.00;;;7.90;99.90;;;;;;5037243;28;38682;-72
2021/10/23 06:44:16;;;;;;;25.10;14.17;;;8.00;99.90;;;;;;5028201;28;36982;-72
2021/10/23 06:46:42;;;;;;;47.00;18.10;;;8.10;99.90;;;;;;5014882;28;39114;-73
2021/10/23 06:49:09;;;;;;;31.63;16.97;;;8.20;99.90;;;;;;5027456;28;38771;-72
2021/10/23 06:51:37;;;;;;;45.00;18.67;;;8.20;99.90;;;;;;5021006;28;38873;-72
2021/10/23 06:54:04;;;;;;;43.57;19.50;;;8.30;99.90;;;;;;5016363;28;39184;-72
2021/10/23 06:56:30;;;;;;;58.90;23.73;;;8.40;99.90;;;;;;5016338;28;39455;-72
2021/10/23 06:58:56;;;;;;;39.30;20.03;;;8.50;99.90;;;;;;5019409;28;39525;-72
2021/10/23 07:01:23;;;;;;;59.17;26.40;;;8.60;99.90;;;;;;5013861;28;39292;-72
2021/10/23 07:03:49;;;;;;;54.10;24.07;;;8.90;99.90;;;;;;5028957;28;37971;-73
2021/10/23 07:06:16;;;;;;;68.53;28.07;;;9.00;99.90;;;;;;5023535;28;38875;-73
2021/10/23 07:08:42;;;;;;;82.83;31.97;;;9.10;99.90;;;;;;5037446;28;38874;-73
2021/10/23 07:11:08;;;;;;;52.07;27.73;;;9.20;99.90;;;;;;5015870;28;38809;-73
2021/10/23 07:13:35;;;;;;;57.77;29.00;;;9.30;99.90;;;;;;5017288;28;38110;-73
2021/10/23 07:16:01;;;;;;;91.70;34.03;;;9.50;99.90;;;;;;5016051;28;39078;-73
2021/10/23 07:18:28;;;;;;;51.43;27.20;;;9.60;99.90;;;;;;5018343;28;47069;-73
2021/10/23 07:20:54;;;;;;;83.77;34.67;;;9.60;99.90;;;;;;5011501;28;40373;-73
2021/10/23 07:23:20;;;;;;;89.00;34.53;;;9.70;99.90;;;;;;5017599;28;38410;-74
2021/10/23 07:25:47;;;;;;;40.53;24.73;;;9.70;99.90;;;;;;5018865;28;39783;-75
2021/10/23 07:28:14;;;;;;;44.10;25.23;;;9.70;99.90;;;;;;5031429;28;38870;-75
2021/10/23 07:30:40;;;;;;;71.70;32.83;;;9.70;99.90;;;;;;5012172;28;39147;-75
2021/10/23 07:33:07;;;;;;;72.23;33.17;;;9.80;99.90;;;;;;5033664;28;38309;-75
2021/10/23 07:35:33;;;;;;;67.43;31.67;;;9.80;99.90;;;;;;5012743;28;41079;-75
2021/10/23 07:38:00;;;;;;;65.33;31.17;;;9.80;99.90;;;;;;5032094;28;39379;-76
2021/10/23 07:40:26;;;;;;;48.60;28.53;;;9.80;99.90;;;;;;5034234;28;38594;-76
2021/10/23 07:42:52;;;;;;;55.90;28.80;;;9.90;99.90;;;;;;5026064;28;36149;-75
2021/10/23 07:45:18;;;;;;;60.90;30.17;;;9.90;99.90;;;;;;5008538;28;40358;-75
2021/10/23 07:47:45;;;;;;;65.60;32.53;;;10.00;99.90;;;;;;5012934;28;40461;-75
2021/10/23 07:50:12;;;;;;;59.83;31.00;;;10.00;99.90;;;;;;5016408;28;39412;-75
2021/10/23 07:52:39;;;;;;;40.83;25.07;;;10.10;99.90;;;;;;5019288;28;37720;-75
2021/10/23 07:55:07;;;;;;;74.90;34.93;;;10.10;99.90;;;;;;5040847;28;39668;-75
2021/10/23 07:57:34;;;;;;;93.40;39.90;;;10.20;99.90;;;;;;5033519;28;38661;-75
2021/10/23 08:00:00;;;;;;;49.80;28.90;;;10.30;99.90;;;;;;5031542;28;38631;-74
2021/10/23 08:02:27;;;;;;;57.13;31.27;;;10.40;99.90;;;;;;5032986;28;38626;-75
2021/10/23 08:04:53;;;;;;;32.70;22.50;;;10.40;99.90;;;;;;5018302;28;40005;-75
2021/10/23 08:07:21;;;;;;;31.00;22.27;;;10.50;99.90;;;;;;5015114;28;39358;-73
2021/10/23 08:09:47;;;;;;;37.30;25.10;;;10.50;99.90;;;;;;5013807;28;38688;-73
2021/10/23 08:12:13;;;;;;;31.53;22.27;;;10.50;99.90;;;;;;5041205;28;37278;-73
2021/10/23 08:14:39;;;;;;;38.13;23.77;;;10.50;99.90;;;;;;5023611;28;40895;-73
2021/10/23 08:17:06;;;;;;;34.20;21.90;;;10.60;99.90;;;;;;5036479;28;37081;-73
2021/10/23 08:19:32;;;;;;;30.30;20.50;;;10.60;99.90;;;;;;5018768;28;40459;-73
2021/10/23 08:21:59;;;;;;;33.37;19.37;;;10.60;99.90;;;;;;5017194;28;38621;-73
2021/10/23 08:24:25;;;;;;;27.07;19.10;;;10.70;99.90;;;;;;5008210;28;39643;-73
2021/10/23 08:26:51;;;;;;;28.60;18.67;;;10.70;99.90;;;;;;5013186;28;38938;-73
2021/10/23 08:29:17;;;;;;;26.83;19.10;;;10.70;99.90;;;;;;5009209;28;38683;-73
2021/10/23 08:31:44;;;;;;;29.10;18.40;;;10.70;99.90;;;;;;5020504;28;37157;-73
2021/10/23 08:34:10;;;;;;;27.83;18.73;;;10.70;99.90;;;;;;5022689;28;39276;-73
2021/10/23 08:36:37;;;;;;;34.00;22.40;;;10.80;99.90;;;;;;5016350;28;40361;-73
2021/10/23 08:39:05;;;;;;;25.20;17.73;;;10.90;99.90;;;;;;5011709;28;40333;-73
2021/10/23 08:41:31;;;;;;;24.30;17.03;;;10.90;99.90;;;;;;5030667;28;37562;-73
2021/10/23 08:44:03;;;;;;;28.70;17.93;;;11.00;99.90;;;;;;5019576;28;39285;-73
2021/10/23 08:46:33;;;;;;;27.03;18.63;;;11.00;99.90;;;;;;5035785;28;48888;-72
2021/10/23 08:49:02;;;;;;;34.33;20.07;;;11.00;99.90;;;;;;5032671;28;39307;-72
2021/10/23 08:51:30;;;;;;;28.65;19.85;;;11.00;99.90;;;;;;5019110;28;47297;-73
2021/10/23 08:53:57;;;;;;;25.90;18.97;;;11.10;99.90;;;;;;5036874;28;38478;-72
2021/10/23 08:56:23;;;;;;;29.17;19.33;;;11.10;99.90;;;;;;5011120;28;40546;-73
2021/10/23 08:58:49;;;;;;;31.70;18.70;;;11.20;99.90;;;;;;5011224;28;38923;-73
2021/10/23 09:01:15;;;;;;;25.77;17.03;;;11.20;99.90;;;;;;5004845;28;38554;-73
2021/10/23 09:03:43;;;;;;;32.63;19.17;;;11.20;99.90;;;;;;5010735;28;39774;-73
2021/10/23 09:06:48;;;;;;;26.73;18.20;;;11.20;99.90;;;;;;5024047;28;39857;-72
2021/10/23 09:09:15;;;;;;;25.20;16.03;;;11.30;99.90;;;;;;4976879;28;39657;-73
2021/10/23 09:11:48;;;;;;;26.23;16.03;;;11.30;99.90;;;;;;5023202;28;38140;-73
2021/10/23 09:14:26;;;;;;;28.13;17.15;;;11.40;99.90;;;;;;5040346;28;38990;-73
2021/10/23 09:17:09;;;;;;;28.88;16.92;;;11.40;99.90;;;;;;5038936;28;38499;-73
2021/10/23 09:19:37;;;;;;;25.23;16.38;;;11.40;99.90;;;;;;5033710;28;48442;-73
2021/10/23 09:22:05;;;;;;;24.73;16.75;;;11.50;99.90;;;;;;5033208;28;37272;-74
2021/10/23 09:24:32;;;;;;;23.58;16.48;;;11.50;99.90;;;;;;5022116;28;37815;-73
2021/10/23 09:26:58;;;;;;;25.95;16.40;;;11.60;99.90;;;;;;5013414;28;40200;-73
2021/10/23 09:29:25;;;;;;;24.42;18.02;;;11.60;99.90;;;;;;5041072;28;39467;-73
2021/10/23 09:31:55;;;;;;;22.85;16.35;;;11.60;99.90;;;;;;5038771;28;37309;-73
2021/10/23 09:34:23;;;;;;;26.92;18.05;;;11.60;99.90;;;;;;5016964;28;39383;-73
2021/10/23 09:36:55;;;;;;;22.50;16.70;;;11.60;99.90;;;;;;5011106;28;39643;-73
2021/10/23 09:39:26;;;;;;;28.88;16.98;;;11.60;99.90;;;;;;5017859;28;39713;-73
2021/10/23 09:42:11;;;;;;;31.27;17.40;;;11.60;99.90;;;;;;5046441;28;38076;-73
2021/10/23 09:44:51;;;;;;;23.63;16.13;;;11.60;99.90;;;;;;5022449;28;47196;-73
2021/10/23 09:47:17;;;;;;;22.40;14.40;;;11.70;99.90;;;;;;5028496;28;40743;-72
2021/10/23 09:50:13;;;;;;;24.70;14.02;;;11.70;99.90;;;;;;5038673;28;39256;-72
2021/10/23 09:53:00;;;;;;;20.60;12.73;;;11.70;99.90;;;;;;5006874;28;47314;-72
2021/10/23 09:55:48;;;;;;;18.65;13.20;;;11.80;99.90;;;;;;5030804;28;47401;-72
2021/10/23 09:58:16;;;;;;;20.02;12.60;;;11.80;99.90;;;;;;5042817;28;38894;-71
2021/10/23 10:00:44;;;;;;;16.45;11.70;;;11.90;99.90;;;;;;5028938;28;37453;-74
2021/10/23 10:03:11;;;;;;;16.25;11.30;;;11.90;99.90;;;;;;5032947;28;38101;-74
2021/10/23 10:05:38;;;;;;;12.77;10.80;;;11.90;99.90;;;;;;5027438;28;38701;-73
2021/10/23 10:08:09;;;;;;;19.83;11.20;;;12.00;99.90;;;;;;5018000;28;37972;-74
2021/10/23 10:10:37;;;;;;;16.17;10.53;;;12.10;99.90;;;;;;5023322;28;38528;-74
2021/10/23 10:13:05;;;;;;;21.00;10.75;;;12.10;99.90;;;;;;5035894;28;37283;-74
2021/10/23 10:15:33;;;;;;;15.20;9.00;;;12.20;99.90;;;;;;5040860;28;39508;-74
2021/10/23 10:18:08;;;;;;;18.90;10.05;;;12.30;99.90;;;;;;5023205;28;39100;-74
2021/10/23 10:20:36;;;;;;;17.85;10.60;;;12.30;99.90;;;;;;5012773;28;47115;-73
2021/10/23 10:23:10;;;;;;;23.05;12.02;;;12.30;99.90;;;;;;5015925;28;37370;-74
2021/10/23 10:25:38;;;;;;;15.75;9.93;;;12.50;99.90;;;;;;5026622;28;39657;-73
2021/10/23 10:28:10;;;;;;;17.52;11.88;;;12.50;99.90;;;;;;5046551;28;38906;-74
2021/10/23 10:30:38;;;;;;;14.65;11.00;;;12.60;99.90;;;;;;5023882;28;39034;-74
2021/10/23 10:33:32;;;;;;;19.45;11.93;;;12.70;99.90;;;;;;5026467;28;38320;-74
2021/10/23 10:39:02;;;;;;;16.02;11.38;;;12.70;99.90;;;;;;5012695;28;49218;-73
2021/10/23 10:44:16;;;;;;;19.88;13.60;;;12.90;99.90;;;;;;5010975;28;37556;-73
2021/10/23 10:46:55;;;;;;;20.65;14.75;;;13.00;99.90;;;;;;5009185;28;48502;-73
2021/10/23 10:49:40;;;;;;;20.60;12.98;;;13.00;99.90;;;;;;5012645;28;38700;-73
2021/10/23 10:52:38;;;;;;;19.55;13.35;;;13.00;99.90;;;;;;5008652;28;38781;-74
2021/10/23 10:55:12;;;;;;;17.17;11.65;;;13.10;99.90;;;;;;5021456;28;37664;-74
2021/10/23 10:58:09;;;;;;;16.55;12.05;;;13.20;99.90;;;;;;5025814;28;39599;-74
2021/10/23 11:00:48;;;;;;;20.52;12.70;;;13.20;99.90;;;;;;5023029;28;47399;-71
2021/10/23 11:03:44;;;;;;;17.75;11.93;;;13.20;99.90;;;;;;5019398;28;38525;-72
2021/10/23 11:09:15;;;;;;;12.63;8.80;;;13.30;99.90;;;;;;5026702;28;40129;-71
2021/10/23 11:11:50;;;;;;;12.40;6.97;;;13.30;99.90;;;;;;5012764;28;47766;-72
2021/10/23 11:14:28;;;;;;;11.70;7.65;;;13.30;99.90;;;;;;5020978;28;35569;-72
2021/10/23 11:16:57;;;;;;;10.98;7.20;;;13.20;99.90;;;;;;5023470;28;36504;-72
2021/10/23 11:19:33;;;;;;;10.73;6.40;;;13.20;99.90;;;;;;5023240;28;37450;-72
2021/10/23 11:22:14;;;;;;;15.02;7.30;;;13.10;99.90;;;;;;5011326;28;39078;-72
2021/10/23 11:24:43;;;;;;;8.45;6.93;;;13.30;99.90;;;;;;5004234;28;47407;-72
2021/10/23 11:27:42;;;;;;;13.35;7.30;;;13.20;99.90;;;;;;5014981;28;38103;-72
2021/10/23 11:30:18;;;;;;;12.95;8.63;;;13.10;99.90;;;;;;5022244;28;38893;-72
2021/10/23 11:32:47;;;;;;;16.10;9.35;;;13.00;99.90;;;;;;5019614;28;37965;-73
2021/10/23 11:35:14;;;;;;;15.18;8.73;;;13.00;99.90;;;;;;5018252;28;38409;-72
2021/10/23 11:37:41;;;;;;;13.75;8.68;;;13.10;99.90;;;;;;5021575;28;37133;-71
2021/10/23 11:40:12;;;;;;;17.42;10.45;;;13.10;99.90;;;;;;5013768;28;38116;-71
2021/10/23 11:42:52;;;;;;;14.03;9.33;;;13.00;99.90;;;;;;5023135;28;38278;-72
2021/10/23 11:45:24;;;;;;;17.70;10.57;;;13.10;99.90;;;;;;5022833;28;37697;-71
2021/10/23 11:47:51;;;;;;;16.40;11.20;;;13.10;99.90;;;;;;5021007;28;37335;-72
2021/10/23 11:50:22;;;;;;;15.38;10.00;;;13.10;99.90;;;;;;5015306;28;38664;-73
2021/10/23 11:53:01;;;;;;;13.40;10.38;;;13.20;99.90;;;;;;5022579;28;38575;-73
2021/10/23 11:55:32;;;;;;;14.48;10.07;;;13.30;99.90;;;;;;5022461;28;47419;-72
2021/10/23 11:57:59;;;;;;;22.23;11.65;;;13.30;99.90;;;;;;5024444;28;38111;-72
2021/10/23 12:00:28;;;;;;;12.77;8.80;;;13.30;99.90;;;;;;5021637;28;39972;-72
2021/10/23 12:02:58;;;;;;;13.75;8.98;;;13.20;99.90;;;;;;5022279;28;37981;-72
2021/10/23 12:05:39;;;;;;;11.27;9.15;;;13.20;99.90;;;;;;4968191;28;1177185;-72
2021/10/23 12:08:24;;;;;;;14.25;9.02;;;13.30;99.90;;;;;;5019242;28;37286;-72
2021/10/23 12:11:10;;;;;;;12.73;9.27;;;13.30;99.90;;;;;;5018647;28;37718;-72
2021/10/23 12:13:45;;;;;;;13.63;9.38;;;13.40;99.90;;;;;;5041937;28;48818;-72
2021/10/23 12:16:12;;;;;;;12.88;9.18;;;13.40;99.90;;;;;;5044577;28;39275;-72
2021/10/23 12:18:42;;;;;;;12.73;10.35;;;13.40;99.90;;;;;;5027450;28;37272;-72
2021/10/23 12:21:22;;;;;;;15.82;10.68;;;13.40;99.90;;;;;;5025933;28;38851;-72
2021/10/23 12:23:54;;;;;;;12.35;10.07;;;13.40;99.90;;;;;;4999998;28;36276;-72
2021/10/23 12:26:25;;;;;;;12.10;10.15;;;13.40;99.90;;;;;;5001906;28;38448;-72
2021/10/23 12:29:12;;;;;;;14.60;11.35;;;13.40;99.90;;;;;;5012069;28;38550;-72
2021/10/23 12:31:58;;;;;;;19.25;11.10;;;13.40;99.90;;;;;;5008222;28;47568;-73
2021/10/23 12:34:26;;;;;;;18.30;11.30;;;13.30;99.90;;;;;;5024222;28;39138;-72
2021/10/23 12:36:57;;;;;;;14.65;11.73;;;13.30;99.90;;;;;;5012804;28;39117;-72
2021/10/23 12:39:25;;;;;;;17.67;11.23;;;13.40;99.90;;;;;;5029738;28;37495;-72
2021/10/23 12:41:53;;;;;;;18.88;11.18;;;13.40;99.90;;;;;;5014099;28;40049;-72
2021/10/23 12:44:22;;;;;;;16.67;11.35;;;13.30;99.90;;;;;;5018272;28;37877;-72
2021/10/23 12:46:50;;;;;;;21.67;11.27;;;13.20;99.90;;;;;;5017011;28;39313;-72
2021/10/23 12:49:16;;;;;;;20.95;11.77;;;13.20;99.90;;;;;;5013733;28;38735;-72
2021/10/23 12:51:43;;;;;;;19.63;11.00;;;13.20;99.90;;;;;;5030737;28;38549;-72
2021/10/23 12:54:09;;;;;;;17.92;12.18;;;13.20;99.90;;;;;;5012886;28;39100;-72
2021/10/23 12:56:35;;;;;;;15.20;11.35;;;13.30;99.90;;;;;;5030649;28;39160;-72
2021/10/23 12:59:01;;;;;;;13.65;10.57;;;13.30;99.90;;;;;;5018236;28;36601;-72